首页
METAR-TAF:

METAR-TAF

机场 :

Fort Bragg, 北卡罗来纳州, 美国

纬度: 35-08N, 经度: 078-56W, 海拔: 74米

当前天气观测

该预报发布于13分钟前的13:16 UTC
风速10节,风向西转西南
温度 27°C
湿度 79%
气压 1016 hPa
能見度: 16.1公里
散云层高于1200英尺

METAR: KFBG 171316Z AUTO 24010KT 10SM SCT012 27/23 A2999 RMK AO2 SLP156 $

时间: 09:29 (13:29 UTC)

预报

该预报发布于44分钟前的12:45 UTC
预报有效从17日的 12点(UTC)到 18日的 15点(UTC)
风速6节,风向南转西南
能见度10公里或以上
多云层高于900英尺
多云层高于14000英尺
成为
从 17日的 14点(UTC)到 17日的 15点(UTC)
风速9节,风向西南
能见度10公里或以上
散云层高于3500英尺
多云层高于10000英尺
成为
从 17日的 19点(UTC)到 17日的 20点(UTC)
风速12节,风向西转西南
能見度: 8000
多云层高于3000英尺
阴天层高于9000英尺
小阵雨
短暂存在
从 17日的 21点(UTC)到 18日的 01点(UTC)
风速15节,风向多变,有时为25节阵风
能見度: 6000
阴天层高于1500英尺, 积雨云.
雷暴, 小雨
成为
从 18日的 05点(UTC)到 18日的 06点(UTC)
风速6节,风向西
能見度: 8000
多云层高于1000英尺
轻雾
成为
从 18日的 11点(UTC)到 18日的 12点(UTC)
风速9节,风向西转西北
能见度10公里或以上
散云层高于1500英尺
多云层高于3500英尺
成为
从 18日的 14点(UTC)到 18日的 15点(UTC)
风速10节,风向,有时为15节阵风
能见度10公里或以上
散云层高于5000英尺

TAF: KFBG 171245Z 1712/1815 21006KT 9999 BKN009 BKN140 QNH2994INS BECMG 1714/1715 23009KT 9999 SCT035 BKN100 QNH2990INS BECMG 1719/1720 24012KT 8000 -SHRA BKN030 OVC090 QNH2988INS TEMPO 1721/1801 VRB15G25KT 6000 -TSRA OVC015CB BECMG 1805/1806 26006KT 8000 BR BKN010 QNH2986INS BECMG 1811/1812 30009KT 9999 NSW SCT015 BKN035 QNH2990INS BECMG 1814/1815 01010G15KT 9999 SCT050 QNH2992INS TX31/1718Z TN24/1712Z

超过4000个机场的气象观测和天气预报(METAR&TAF报告)。

可查询的气象台以黄色和红色小点在地图上表示。

将鼠标移到小点上方,可查看气象台名称。

然后点击查看天气观测和预报。

如需切换地图:点击带黑十字的绿色按钮放大地图;点击带横线的绿色按钮缩小地图;或者点击绿色箭头查看邻近地区的地图。


METAR-TAF: